createdAt,value
2022-10-24T00:01:39.996Z,26.63
2022-10-24T00:04:08.194Z,27.88
2022-10-24T00:06:35.824Z,30.15
2022-10-24T00:09:04.100Z,25.42
2022-10-24T00:11:31.826Z,24.15
2022-10-24T00:13:59.965Z,28.25
2022-10-24T00:16:29.031Z,22.45
2022-10-24T00:18:56.405Z,23.85
2022-10-24T00:21:24.207Z,24.30
2022-10-24T00:23:51.803Z,24.08
2022-10-24T00:26:19.288Z,26.95
2022-10-24T00:28:47.231Z,24.77
2022-10-24T00:31:18.543Z,24.30
2022-10-24T00:33:47.239Z,25.80
2022-10-24T00:36:22.096Z,27.13
2022-10-24T00:38:51.138Z,26.58
2022-10-24T00:41:31.417Z,26.15
2022-10-24T00:44:24.319Z,25.58
2022-10-24T00:47:06.920Z,26.63
2022-10-24T00:49:49.237Z,25.48
2022-10-24T00:52:24.377Z,26.75
2022-10-24T00:54:54.208Z,25.38
2022-10-24T00:57:42.518Z,26.70
2022-10-24T01:00:28.120Z,24.83
2022-10-24T01:02:55.982Z,24.08
2022-10-24T01:05:29.065Z,21.35
2022-10-24T01:08:14.642Z,25.92
2022-10-24T01:10:54.920Z,24.90
2022-10-24T01:13:49.029Z,24.08
2022-10-24T01:16:51.495Z,23.48
2022-10-24T01:20:02.656Z,26.45
2022-10-24T01:23:01.495Z,24.83
2022-10-24T01:25:50.219Z,24.77
2022-10-24T01:28:33.319Z,25.45
2022-10-24T01:31:23.176Z,22.38
2022-10-24T01:34:00.541Z,23.42
2022-10-24T01:36:43.200Z,25.35
2022-10-24T01:39:19.263Z,23.38
2022-10-24T01:41:48.558Z,24.05
2022-10-24T01:44:23.487Z,24.17
2022-10-24T01:46:56.891Z,23.80
2022-10-24T01:49:30.445Z,24.67
2022-10-24T01:52:03.535Z,25.50
2022-10-24T01:54:33.262Z,23.10
2022-10-24T01:57:00.909Z,23.15
2022-10-24T01:59:31.283Z,24.45
2022-10-24T02:02:33.009Z,26.23
2022-10-24T02:05:37.953Z,23.75
2022-10-24T02:08:13.414Z,26.63
2022-10-24T02:10:51.730Z,25.15
2022-10-24T02:13:33.185Z,22.13
2022-10-24T02:16:03.226Z,23.58
2022-10-24T02:18:31.687Z,26.05
2022-10-24T02:21:28.641Z,23.58
2022-10-24T02:24:07.499Z,28.42
2022-10-24T02:26:54.658Z,25.83
2022-10-24T02:29:59.600Z,23.65
2022-10-24T02:32:36.361Z,24.17
2022-10-24T02:35:06.861Z,22.27
2022-10-24T02:37:38.783Z,26.25
2022-10-24T02:40:09.472Z,21.40
2022-10-24T02:42:38.788Z,22.58
2022-10-24T02:45:10.100Z,23.48
2022-10-24T02:47:39.892Z,22.55
2022-10-24T02:50:08.701Z,20.73
2022-10-24T02:52:39.089Z,22.52
2022-10-24T02:55:07.669Z,22.27
2022-10-24T02:57:35.049Z,23.27
2022-10-24T03:00:05.689Z,22.95
2022-10-24T03:02:33.278Z,21.90
2022-10-24T03:05:01.059Z,22.80
2022-10-24T03:09:56.004Z,21.63
2022-10-24T03:12:24.393Z,21.33
2022-10-24T03:14:52.449Z,25.05
2022-10-24T03:17:19.871Z,18.10
2022-10-24T03:19:47.677Z,22.80
2022-10-24T03:22:18.136Z,20.33
2022-10-24T03:24:55.014Z,23.33
2022-10-24T03:27:23.524Z,26.17
2022-10-24T03:29:51.189Z,24.08
2022-10-24T03:32:18.721Z,26.60
2022-10-24T03:34:46.379Z,22.63
2022-10-24T03:37:14.042Z,23.67
2022-10-24T03:39:41.790Z,23.92
2022-10-24T03:42:09.286Z,23.58
2022-10-24T03:44:36.800Z,25.00
2022-10-24T03:47:04.926Z,27.25
2022-10-24T03:49:32.541Z,25.45
2022-10-24T03:52:00.233Z,23.65
2022-10-24T03:54:27.741Z,23.95
2022-10-24T03:56:55.569Z,23.58
2022-10-24T03:59:23.112Z,24.88
2022-10-24T04:01:53.031Z,22.38
2022-10-24T04:04:20.775Z,21.67
2022-10-24T04:07:02.278Z,26.75
2022-10-24T04:09:30.062Z,23.17
2022-10-24T04:11:58.025Z,26.98
2022-10-24T04:16:58.848Z,21.73
2022-10-24T04:19:26.556Z,22.25
2022-10-24T04:21:56.036Z,21.20
2022-10-24T04:24:31.869Z,23.58
2022-10-24T04:26:59.378Z,21.80
2022-10-24T04:29:26.857Z,29.63
2022-10-24T04:31:54.351Z,25.42
2022-10-24T04:34:22.512Z,25.02
2022-10-24T04:36:50.373Z,20.42
2022-10-24T04:39:18.385Z,20.50
2022-10-24T04:41:46.773Z,25.48
2022-10-24T04:44:14.523Z,25.25
2022-10-24T04:46:42.001Z,25.42
2022-10-24T04:49:11.063Z,25.25
2022-10-24T04:51:38.575Z,24.95
2022-10-24T04:54:09.062Z,26.10
2022-10-24T04:56:37.357Z,26.00
2022-10-24T04:59:05.755Z,22.80
2022-10-24T05:01:34.888Z,24.35
2022-10-24T05:04:02.790Z,18.65
2022-10-24T05:06:32.853Z,26.13
2022-10-24T05:09:00.720Z,24.73
2022-10-24T05:11:28.541Z,25.02
2022-10-24T05:13:56.932Z,25.55
2022-10-24T05:16:26.757Z,28.20
2022-10-24T05:21:40.004Z,23.83
2022-10-24T05:24:13.294Z,24.63
2022-10-24T05:26:41.307Z,22.48
2022-10-24T05:29:18.816Z,22.65
2022-10-24T05:31:46.602Z,20.77
2022-10-24T05:34:14.602Z,25.33
2022-10-24T05:36:42.622Z,25.90
2022-10-24T05:39:10.279Z,22.88
2022-10-24T05:41:43.389Z,23.25
2022-10-24T06:23:20.110Z,24.65
2022-10-24T06:52:28.826Z,32.08
2022-10-24T06:54:56.448Z,28.83
2022-10-24T06:57:32.689Z,32.70
2022-10-24T07:00:19.618Z,32.78
2022-10-24T07:02:51.763Z,38.83
2022-10-24T07:56:35.308Z,27.73
2022-10-24T07:59:09.090Z,26.40
2022-10-24T08:01:41.468Z,30.17
2022-10-24T08:04:09.800Z,29.40
2022-10-24T08:06:37.328Z,31.55
2022-10-24T08:09:04.880Z,29.17
2022-10-24T08:11:32.864Z,32.92
2022-10-24T08:14:05.112Z,35.78
2022-10-24T08:16:35.194Z,32.85
2022-10-24T08:19:05.517Z,30.13
2022-10-24T08:21:33.725Z,28.55
2022-10-24T08:24:01.477Z,26.33
2022-10-24T08:26:29.064Z,29.85
2022-10-24T08:28:59.733Z,24.77
2022-10-24T08:37:26.743Z,25.23
2022-10-24T08:39:56.041Z,26.80
2022-10-24T08:42:25.847Z,27.63
2022-10-24T08:44:54.203Z,25.23
2022-10-24T08:47:55.251Z,24.00
2022-10-24T08:50:33.654Z,21.30
2022-10-24T08:53:09.359Z,26.85
2022-10-24T08:55:55.039Z,25.27
2022-10-24T08:58:28.688Z,30.23
2022-10-24T09:01:13.702Z,25.55
2022-10-24T09:04:02.095Z,34.92
2022-10-24T09:06:33.802Z,24.77
2022-10-24T09:09:23.848Z,26.83
2022-10-24T09:11:57.103Z,28.33
2022-10-24T09:14:37.158Z,32.73
2022-10-24T09:17:25.664Z,28.95
2022-10-24T09:20:22.996Z,31.08
2022-10-24T09:22:51.052Z,27.45
2022-10-24T09:27:58.334Z,27.95
2022-10-24T09:30:31.509Z,28.70
2022-10-24T09:33:24.763Z,32.33
2022-10-24T09:35:56.051Z,32.05
2022-10-24T09:38:23.458Z,27.60
2022-10-24T09:40:59.873Z,24.38
2022-10-24T09:43:41.405Z,27.58
2022-10-24T09:46:19.831Z,22.83
2022-10-24T09:49:00.724Z,24.48
2022-10-24T09:51:36.648Z,25.85
2022-10-24T09:54:21.146Z,24.92
2022-10-24T09:57:00.562Z,24.38
2022-10-24T09:59:44.490Z,22.10
2022-10-24T10:13:20.254Z,19.25
2022-10-24T10:15:57.707Z,26.67
2022-10-24T10:18:43.794Z,24.95
2022-10-24T10:21:24.073Z,25.70
2022-10-24T10:26:51.135Z,28.25
2022-10-24T10:29:19.702Z,24.10
2022-10-24T10:31:51.418Z,23.60
2022-10-24T10:34:33.516Z,24.23
2022-10-24T10:37:23.361Z,23.13
2022-10-24T10:40:18.925Z,20.95
2022-10-24T10:43:06.191Z,27.60
2022-10-24T10:45:53.543Z,24.35
2022-10-24T10:49:05.209Z,25.13
2022-10-24T10:51:52.297Z,26.58
2022-10-24T10:54:43.257Z,27.58
2022-10-24T10:57:22.175Z,29.80
2022-10-24T10:59:59.618Z,24.20
2022-10-24T11:03:12.278Z,29.33
2022-10-24T11:06:36.571Z,27.00
2022-10-24T11:09:28.511Z,29.85
2022-10-24T11:12:05.492Z,25.50
2022-10-24T11:15:06.852Z,31.08
2022-10-24T11:17:48.131Z,34.80
2022-10-24T11:20:48.262Z,30.70
2022-10-24T11:23:40.560Z,27.38
2022-10-24T11:26:31.060Z,25.13
2022-10-24T11:29:24.565Z,26.95
2022-10-24T11:32:07.132Z,27.98
2022-10-24T11:34:52.298Z,27.88
2022-10-24T11:37:42.258Z,23.15
2022-10-24T11:40:13.822Z,28.42
2022-10-24T11:42:56.746Z,28.33
2022-10-24T11:45:47.757Z,25.67
2022-10-24T11:48:32.364Z,23.88
2022-10-24T11:51:25.210Z,29.80
2022-10-24T11:53:57.685Z,25.52
2022-10-24T11:56:47.273Z,26.73
2022-10-24T11:59:24.468Z,26.02
2022-10-24T12:02:26.808Z,24.88
2022-10-24T12:05:19.363Z,27.13
2022-10-24T12:08:11.185Z,28.90
2022-10-24T12:11:05.883Z,29.15
2022-10-24T12:17:05.737Z,27.25
2022-10-24T12:19:38.401Z,31.33
2022-10-24T12:22:07.155Z,30.02
2022-10-24T12:24:39.100Z,29.27
2022-10-24T12:27:25.169Z,34.10
2022-10-24T12:30:18.104Z,31.70
2022-10-24T12:32:46.541Z,31.73
2022-10-24T12:35:44.698Z,33.95
2022-10-24T12:41:48.033Z,37.90
2022-10-24T12:44:38.286Z,31.42
2022-10-24T12:47:42.840Z,34.53
2022-10-24T12:50:22.265Z,30.58
2022-10-24T12:55:52.292Z,37.75
2022-10-24T13:17:24.863Z,42.28
2022-10-24T13:20:27.022Z,42.67
2022-10-24T13:23:27.055Z,44.38
2022-10-24T13:26:00.480Z,44.35
2022-10-24T13:28:30.471Z,43.50
2022-10-24T13:31:01.215Z,44.47
2022-10-24T13:33:32.139Z,44.40
2022-10-24T13:36:29.674Z,43.08
2022-10-24T13:39:00.287Z,46.55
2022-10-24T13:41:35.231Z,43.75
2022-10-24T13:44:10.595Z,42.72
2022-10-24T13:46:54.357Z,43.97
2022-10-24T13:49:41.463Z,49.97
2022-10-24T13:52:51.266Z,45.45
2022-10-24T13:55:31.178Z,42.20
2022-10-24T13:58:37.429Z,42.33
2022-10-24T14:01:28.988Z,45.55
2022-10-24T14:04:06.377Z,44.03
2022-10-24T14:06:34.819Z,49.63
2022-10-24T14:11:52.130Z,52.28
2022-10-24T14:14:38.178Z,52.17
2022-10-24T14:17:31.720Z,50.45
2022-10-24T14:20:29.146Z,46.55
2022-10-24T14:22:59.688Z,47.22
2022-10-24T14:25:36.481Z,48.42
2022-10-24T14:28:27.643Z,50.78
2022-10-24T14:31:05.828Z,51.63
2022-10-24T14:33:47.672Z,52.72
2022-10-24T14:36:17.137Z,46.92
2022-10-24T14:38:47.970Z,49.17
2022-10-24T14:41:15.667Z,54.97
2022-10-24T14:43:45.131Z,54.55
2022-10-24T14:46:12.470Z,49.65
2022-10-24T14:48:48.874Z,53.75
2022-10-24T14:51:39.218Z,50.58
2022-10-24T14:54:23.746Z,48.55
2022-10-24T14:56:54.513Z,50.55
2022-10-24T14:59:36.190Z,46.08
2022-10-24T15:02:26.847Z,48.95
2022-10-24T15:05:20.154Z,58.65
2022-10-24T15:08:22.505Z,49.10
2022-10-24T15:11:05.694Z,51.28
2022-10-24T15:13:51.044Z,48.55
2022-10-24T15:16:38.963Z,47.53
2022-10-24T15:19:18.296Z,49.55
2022-10-24T15:21:50.333Z,51.08
2022-10-24T15:24:24.670Z,51.45
2022-10-24T15:26:53.423Z,56.97
2022-10-24T15:29:24.332Z,53.55
2022-10-24T15:31:53.120Z,49.60
2022-10-24T15:34:23.885Z,51.45
2022-10-24T15:36:53.684Z,48.53
2022-10-24T15:39:26.217Z,51.17
2022-10-24T15:41:54.477Z,60.55
2022-10-24T15:44:29.859Z,52.63
2022-10-24T15:46:57.978Z,54.67
2022-10-24T15:49:29.411Z,61.25
2022-10-24T15:52:01.826Z,54.72
2022-10-24T15:54:29.606Z,60.17
2022-10-24T15:57:00.401Z,71.45
2022-10-24T15:59:30.767Z,70.28
2022-10-24T16:02:03.264Z,61.97
2022-10-24T16:04:35.471Z,60.88
2022-10-24T16:10:02.978Z,79.47
2022-10-24T16:12:30.541Z,63.17
2022-10-24T16:14:58.374Z,61.50
2022-10-24T16:17:25.741Z,63.85
2022-10-24T16:19:53.268Z,60.45
2022-10-24T16:22:20.638Z,86.85
2022-10-24T16:24:49.202Z,78.75
2022-10-24T16:27:16.727Z,74.15
2022-10-24T16:29:44.384Z,65.38
2022-10-24T16:32:13.181Z,75.75
2022-10-24T16:34:40.877Z,64.75
2022-10-24T16:37:21.114Z,65.70
2022-10-24T16:39:56.075Z,62.80
2022-10-24T16:42:26.681Z,64.82
2022-10-24T16:44:54.336Z,84.47
2022-10-24T16:47:21.967Z,91.55
2022-10-24T16:49:49.586Z,93.07
2022-10-24T16:54:53.816Z,82.72
2022-10-24T17:02:40.828Z,71.45
2022-10-24T17:05:08.975Z,71.78
2022-10-24T17:07:37.181Z,71.93
2022-10-24T17:10:05.360Z,60.85
2022-10-24T17:12:43.033Z,57.35
2022-10-24T17:15:12.116Z,58.22
2022-10-24T17:17:43.306Z,61.33
2022-10-24T17:20:13.035Z,53.75
2022-10-24T17:22:44.476Z,57.88
2022-10-24T17:25:24.818Z,55.28
2022-10-24T17:27:55.319Z,61.33
2022-10-24T17:30:29.547Z,55.60
2022-10-24T17:32:57.400Z,57.05
2022-10-24T17:35:26.125Z,57.65
2022-10-24T17:38:33.212Z,62.45
2022-10-24T17:41:30.885Z,60.65
2022-10-24T17:44:01.654Z,59.58
2022-10-24T17:46:32.089Z,59.92
2022-10-24T17:49:06.295Z,57.20
2022-10-24T17:51:38.257Z,62.10
2022-10-24T17:54:06.492Z,59.05
2022-10-24T17:56:34.299Z,66.10
2022-10-24T17:59:03.722Z,65.95
2022-10-24T18:01:31.557Z,69.00
2022-10-24T18:03:59.535Z,63.65
2022-10-24T18:06:27.559Z,67.25
2022-10-24T18:08:57.089Z,58.85
2022-10-24T18:11:25.021Z,62.05
2022-10-24T18:13:52.896Z,59.05
2022-10-24T18:16:26.264Z,58.40
2022-10-24T18:18:57.618Z,53.53
2022-10-24T18:21:38.774Z,49.20
2022-10-24T18:24:08.608Z,53.53
2022-10-24T18:26:38.172Z,58.63
2022-10-24T18:29:05.785Z,61.67
2022-10-24T18:31:48.025Z,72.63
2022-10-24T18:34:15.613Z,60.42
2022-10-24T18:36:43.286Z,64.15
2022-10-24T18:39:10.939Z,59.05
2022-10-24T18:41:45.342Z,56.55
2022-10-24T18:44:29.175Z,52.65
2022-10-24T18:47:04.369Z,54.95
2022-10-24T18:49:34.478Z,55.58
2022-10-24T18:52:15.179Z,52.50
2022-10-24T18:55:02.557Z,49.03
2022-10-24T18:57:33.100Z,48.20
2022-10-24T19:00:01.452Z,48.72
2022-10-24T19:03:07.602Z,52.10
2022-10-24T19:05:54.869Z,42.88
2022-10-24T19:08:31.556Z,44.22
2022-10-24T19:10:59.450Z,46.28
2022-10-24T19:13:30.201Z,43.28
2022-10-24T19:16:00.914Z,50.72
2022-10-24T19:18:32.785Z,48.53
2022-10-24T19:21:01.991Z,60.42
2022-10-24T19:23:29.525Z,64.80
2022-10-24T19:25:59.169Z,63.17
2022-10-24T19:28:27.044Z,56.90
2022-10-24T19:30:57.479Z,51.80
2022-10-24T19:33:28.240Z,52.22
2022-10-24T19:35:56.418Z,54.88
2022-10-24T19:38:24.637Z,45.35
2022-10-24T19:40:55.216Z,47.00
2022-10-24T19:43:25.005Z,47.22
2022-10-24T19:48:44.807Z,51.40
2022-10-24T19:51:13.981Z,46.45
2022-10-24T19:53:44.209Z,43.13
2022-10-24T19:56:21.463Z,47.33
2022-10-24T19:58:52.054Z,47.33
2022-10-24T20:01:26.392Z,46.10
2022-10-24T20:03:58.073Z,43.30
2022-10-24T20:06:26.686Z,44.80
2022-10-24T20:08:54.544Z,52.78
2022-10-24T20:11:23.397Z,46.60
2022-10-24T20:16:26.695Z,45.58
2022-10-24T20:18:54.686Z,43.20
2022-10-24T20:21:22.180Z,47.33
2022-10-24T20:23:50.364Z,58.63
2022-10-24T20:26:22.762Z,48.58
2022-10-24T20:28:53.324Z,54.35
2022-10-24T20:31:32.086Z,49.92
2022-10-24T20:34:06.976Z,58.40
2022-10-24T20:36:37.507Z,50.00
2022-10-24T20:39:07.370Z,49.88
2022-10-24T20:41:36.075Z,57.50
2022-10-24T20:44:04.476Z,53.70
2022-10-24T20:46:32.681Z,47.20
2022-10-24T20:49:00.088Z,45.20
2022-10-24T20:51:27.915Z,42.05
2022-10-24T20:53:55.519Z,47.22
2022-10-24T20:56:26.049Z,41.75
2022-10-24T20:58:55.588Z,43.60
2022-10-24T21:01:26.814Z,39.92
2022-10-24T21:03:55.803Z,34.17
2022-10-24T21:06:26.477Z,38.03
2022-10-24T21:09:00.177Z,43.75
2022-10-24T21:11:31.696Z,46.30
2022-10-24T21:14:07.991Z,38.45
2022-10-24T21:16:36.110Z,42.80
2022-10-24T21:19:12.726Z,38.30
2022-10-24T21:21:44.519Z,38.95
2022-10-24T21:24:23.809Z,35.17
2022-10-24T21:27:02.764Z,40.85
2022-10-24T21:29:34.301Z,37.97
2022-10-24T21:32:03.515Z,35.30
2022-10-24T21:34:34.360Z,32.67
2022-10-24T21:37:04.410Z,33.67
2022-10-24T21:39:32.213Z,33.08
2022-10-24T21:42:01.564Z,35.15
2022-10-24T21:44:34.028Z,35.92
2022-10-24T21:47:04.531Z,37.53
2022-10-24T21:49:32.249Z,35.55
2022-10-24T21:52:00.228Z,37.28
2022-10-24T21:54:32.631Z,41.20
2022-10-24T21:57:00.923Z,51.85
2022-10-24T21:59:28.848Z,51.92
2022-10-24T22:01:56.971Z,63.67
2022-10-24T22:04:25.935Z,48.38
2022-10-24T22:06:54.794Z,59.33
2022-10-24T22:09:26.788Z,49.75
2022-10-24T22:11:58.264Z,47.75
2022-10-24T22:14:27.017Z,45.47
2022-10-24T22:16:54.543Z,42.95
2022-10-24T22:19:28.676Z,43.85
2022-10-24T22:24:26.808Z,56.55
2022-10-24T22:26:55.004Z,54.88
2022-10-24T22:29:24.976Z,50.25
2022-10-24T22:31:54.118Z,52.42
2022-10-24T22:34:26.390Z,46.63
2022-10-24T22:37:18.530Z,64.13
2022-10-24T22:39:47.014Z,45.15
2022-10-24T22:42:19.350Z,67.05
2022-10-24T22:44:49.722Z,45.83
2022-10-24T22:48:10.976Z,45.90
2022-10-24T22:50:54.140Z,43.55
2022-10-24T22:53:27.720Z,45.72
2022-10-24T22:56:11.750Z,41.38
2022-10-24T22:58:44.477Z,42.30
2022-10-24T23:01:41.623Z,34.67
2022-10-24T23:04:31.431Z,39.25
2022-10-24T23:07:10.672Z,38.35
2022-10-24T23:09:39.957Z,38.35
2022-10-24T23:12:20.514Z,37.90
2022-10-24T23:14:49.744Z,35.70
2022-10-24T23:17:26.425Z,33.90
2022-10-24T23:19:55.858Z,34.63
2022-10-24T23:22:25.194Z,42.53
2022-10-24T23:24:56.372Z,41.72
2022-10-24T23:27:42.532Z,38.80
2022-10-24T23:30:20.674Z,36.45
2022-10-24T23:32:50.880Z,40.78
2022-10-24T23:35:20.682Z,45.10
2022-10-24T23:37:51.561Z,54.88
2022-10-24T23:40:35.378Z,46.58
2022-10-24T23:43:04.795Z,45.13
2022-10-24T23:45:48.712Z,39.30
2022-10-24T23:48:59.592Z,40.33
2022-10-24T23:51:43.369Z,41.17
2022-10-24T23:54:16.662Z,38.30
2022-10-24T23:56:47.431Z,39.13
2022-10-24T23:59:18.965Z,35.70
